sensor_id;sensor_type;location;lat;lon;timestamp;pressure;altitude;pressure_sealevel;temperature;humidity
9077;BME280;4574;51.072;17.174;2023-06-22T00:01:51;63291.66;;;-139.42;100.00
9077;BME280;4574;51.072;17.174;2023-06-22T00:04:20;63291.66;;;-139.42;100.00
9077;BME280;4574;51.072;17.174;2023-06-22T00:06:49;63291.66;;;-139.42;100.00
9077;BME280;4574;51.072;17.174;2023-06-22T00:09:17;63291.66;;;-139.42;100.00
9077;BME280;4574;51.072;17.174;2023-06-22T00:11:46;63291.66;;;-139.42;100.00
9077;BME280;4574;51.072;17.174;2023-06-22T00:14:16;63291.66;;;-139.42;100.00
9077;BME280;4574;51.072;17.174;2023-06-22T00:16:45;63291.66;;;-139.42;100.00
9077;BME280;4574;51.072;17.174;2023-06-22T00:19:18;63291.66;;;-139.42;100.00
9077;BME280;4574;51.072;17.174;2023-06-22T00:21:48;63291.66;;;-139.42;100.00
9077;BME280;4574;51.072;17.174;2023-06-22T00:24:20;63291.66;;;-139.42;100.00
9077;BME280;4574;51.072;17.174;2023-06-22T00:26:48;63291.66;;;-139.42;100.00
9077;BME280;4574;51.072;17.174;2023-06-22T00:29:18;63291.66;;;-139.42;100.00
9077;BME280;4574;51.072;17.174;2023-06-22T00:31:51;63291.66;;;-139.42;100.00
9077;BME280;4574;51.072;17.174;2023-06-22T00:34:20;63291.66;;;-139.42;100.00
9077;BME280;4574;51.072;17.174;2023-06-22T00:36:49;63291.66;;;-139.42;100.00
9077;BME280;4574;51.072;17.174;2023-06-22T00:39:18;63291.66;;;-139.42;100.00
9077;BME280;4574;51.072;17.174;2023-06-22T00:41:47;63291.66;;;-139.42;100.00
9077;BME280;4574;51.072;17.174;2023-06-22T00:44:15;63291.66;;;-139.42;100.00
9077;BME280;4574;51.072;17.174;2023-06-22T00:46:45;63291.66;;;-139.42;100.00
9077;BME280;4574;51.072;17.174;2023-06-22T00:49:14;63291.66;;;-139.42;100.00
9077;BME280;4574;51.072;17.174;2023-06-22T00:51:43;63291.66;;;-139.42;100.00
9077;BME280;4574;51.072;17.174;2023-06-22T00:54:14;63291.66;;;-139.42;100.00
9077;BME280;4574;51.072;17.174;2023-06-22T00:56:43;63291.66;;;-139.42;100.00
9077;BME280;4574;51.072;17.174;2023-06-22T00:59:12;63291.66;;;-139.42;100.00
9077;BME280;4574;51.072;17.174;2023-06-22T01:01:46;63291.66;;;-139.42;100.00
9077;BME280;4574;51.072;17.174;2023-06-22T01:04:15;63291.66;;;-139.42;100.00
9077;BME280;4574;51.072;17.174;2023-06-22T01:06:47;63291.66;;;-139.42;100.00
9077;BME280;4574;51.072;17.174;2023-06-22T01:09:24;63291.66;;;-139.42;100.00
9077;BME280;4574;51.072;17.174;2023-06-22T01:12:01;63291.66;;;-139.42;100.00
9077;BME280;4574;51.072;17.174;2023-06-22T01:14:37;63291.66;;;-139.42;100.00
9077;BME280;4574;51.072;17.174;2023-06-22T01:17:12;63291.66;;;-139.42;100.00
9077;BME280;4574;51.072;17.174;2023-06-22T01:19:44;63291.66;;;-139.42;100.00
9077;BME280;4574;51.072;17.174;2023-06-22T01:22:16;63291.66;;;-139.42;100.00
9077;BME280;4574;51.072;17.174;2023-06-22T01:24:57;63291.66;;;-139.42;100.00
9077;BME280;4574;51.072;17.174;2023-06-22T01:27:35;63291.66;;;-139.42;100.00
9077;BME280;4574;51.072;17.174;2023-06-22T01:30:10;63291.66;;;-139.42;100.00
9077;BME280;4574;51.072;17.174;2023-06-22T01:32:40;63291.66;;;-139.42;100.00
9077;BME280;4574;51.072;17.174;2023-06-22T01:35:10;63291.66;;;-139.42;100.00
9077;BME280;4574;51.072;17.174;2023-06-22T01:37:39;63291.66;;;-139.42;100.00
9077;BME280;4574;51.072;17.174;2023-06-22T01:40:08;63291.66;;;-139.42;100.00
9077;BME280;4574;51.072;17.174;2023-06-22T01:42:38;63291.66;;;-139.42;100.00
9077;BME280;4574;51.072;17.174;2023-06-22T01:45:09;63291.66;;;-139.42;100.00
9077;BME280;4574;51.072;17.174;2023-06-22T01:47:39;63291.66;;;-139.42;100.00
9077;BME280;4574;51.072;17.174;2023-06-22T01:50:09;63291.66;;;-139.42;100.00
9077;BME280;4574;51.072;17.174;2023-06-22T01:52:38;63291.66;;;-139.42;100.00
9077;BME280;4574;51.072;17.174;2023-06-22T01:55:07;63291.66;;;-139.42;100.00
9077;BME280;4574;51.072;17.174;2023-06-22T01:57:36;63291.66;;;-139.42;100.00
9077;BME280;4574;51.072;17.174;2023-06-22T02:00:11;63291.66;;;-139.42;100.00
9077;BME280;4574;51.072;17.174;2023-06-22T02:02:44;63291.66;;;-139.42;100.00
9077;BME280;4574;51.072;17.174;2023-06-22T02:05:18;63291.66;;;-139.42;100.00
9077;BME280;4574;51.072;17.174;2023-06-22T02:07:52;63291.66;;;-139.42;100.00
9077;BME280;4574;51.072;17.174;2023-06-22T02:10:24;63291.66;;;-139.42;100.00
9077;BME280;4574;51.072;17.174;2023-06-22T02:12:56;63291.66;;;-139.42;100.00
9077;BME280;4574;51.072;17.174;2023-06-22T02:15:27;63291.66;;;-139.42;100.00
9077;BME280;4574;51.072;17.174;2023-06-22T02:17:56;63291.66;;;-139.42;100.00
9077;BME280;4574;51.072;17.174;2023-06-22T02:20:25;63291.66;;;-139.42;100.00
9077;BME280;4574;51.072;17.174;2023-06-22T02:22:54;63291.66;;;-139.42;100.00
9077;BME280;4574;51.072;17.174;2023-06-22T02:25:23;63291.66;;;-139.42;100.00
9077;BME280;4574;51.072;17.174;2023-06-22T02:27:52;63291.66;;;-139.42;100.00
9077;BME280;4574;51.072;17.174;2023-06-22T02:30:21;63291.66;;;-139.42;100.00
9077;BME280;4574;51.072;17.174;2023-06-22T02:32:51;63291.66;;;-139.42;100.00
9077;BME280;4574;51.072;17.174;2023-06-22T02:35:26;63291.66;;;-139.42;100.00
9077;BME280;4574;51.072;17.174;2023-06-22T02:37:58;63291.66;;;-139.42;100.00
9077;BME280;4574;51.072;17.174;2023-06-22T02:40:28;63291.66;;;-139.42;100.00
9077;BME280;4574;51.072;17.174;2023-06-22T02:42:57;63291.66;;;-139.42;100.00
9077;BME280;4574;51.072;17.174;2023-06-22T02:45:29;63291.66;;;-139.42;100.00
9077;BME280;4574;51.072;17.174;2023-06-22T02:47:59;63291.66;;;-139.42;100.00
9077;BME280;4574;51.072;17.174;2023-06-22T02:50:28;63291.66;;;-139.42;100.00
9077;BME280;4574;51.072;17.174;2023-06-22T02:52:57;63291.66;;;-139.42;100.00
9077;BME280;4574;51.072;17.174;2023-06-22T02:55:28;63291.66;;;-139.42;100.00
9077;BME280;4574;51.072;17.174;2023-06-22T02:57:58;63291.66;;;-139.42;100.00
9077;BME280;4574;51.072;17.174;2023-06-22T03:00:27;63291.66;;;-139.42;100.00
9077;BME280;4574;51.072;17.174;2023-06-22T03:02:59;63291.66;;;-139.42;100.00
9077;BME280;4574;51.072;17.174;2023-06-22T03:05:28;63291.66;;;-139.42;100.00
9077;BME280;4574;51.072;17.174;2023-06-22T03:07:58;63291.66;;;-139.42;100.00
9077;BME280;4574;51.072;17.174;2023-06-22T03:10:26;63291.66;;;-139.42;100.00
9077;BME280;4574;51.072;17.174;2023-06-22T03:12:55;63291.66;;;-139.42;100.00
9077;BME280;4574;51.072;17.174;2023-06-22T03:15:24;63291.66;;;-139.42;100.00
9077;BME280;4574;51.072;17.174;2023-06-22T03:17:53;63291.66;;;-139.42;100.00
9077;BME280;4574;51.072;17.174;2023-06-22T03:20:23;63291.66;;;-139.42;100.00
9077;BME280;4574;51.072;17.174;2023-06-22T03:22:54;63291.66;;;-139.42;100.00
9077;BME280;4574;51.072;17.174;2023-06-22T03:25:23;63291.66;;;-139.42;100.00
9077;BME280;4574;51.072;17.174;2023-06-22T03:27:51;63291.66;;;-139.42;100.00
9077;BME280;4574;51.072;17.174;2023-06-22T03:30:20;63291.66;;;-139.42;100.00
9077;BME280;4574;51.072;17.174;2023-06-22T03:32:49;63291.66;;;-139.42;100.00
9077;BME280;4574;51.072;17.174;2023-06-22T03:35:22;63291.66;;;-139.42;100.00
9077;BME280;4574;51.072;17.174;2023-06-22T03:37:51;63291.66;;;-139.42;100.00
9077;BME280;4574;51.072;17.174;2023-06-22T03:40:19;63291.66;;;-139.42;100.00
9077;BME280;4574;51.072;17.174;2023-06-22T03:42:48;63291.66;;;-139.42;100.00
9077;BME280;4574;51.072;17.174;2023-06-22T03:45:16;63291.66;;;-139.42;100.00
9077;BME280;4574;51.072;17.174;2023-06-22T03:47:45;63291.66;;;-139.42;100.00
9077;BME280;4574;51.072;17.174;2023-06-22T03:50:14;63291.66;;;-139.42;100.00
9077;BME280;4574;51.072;17.174;2023-06-22T03:52:44;63291.66;;;-139.42;100.00
9077;BME280;4574;51.072;17.174;2023-06-22T03:55:12;63291.66;;;-139.42;100.00
9077;BME280;4574;51.072;17.174;2023-06-22T03:57:41;63291.66;;;-139.42;100.00
9077;BME280;4574;51.072;17.174;2023-06-22T04:00:10;63291.66;;;-139.42;100.00
9077;BME280;4574;51.072;17.174;2023-06-22T04:02:40;63291.66;;;-139.42;100.00
9077;BME280;4574;51.072;17.174;2023-06-22T04:05:08;63291.66;;;-139.42;100.00
9077;BME280;4574;51.072;17.174;2023-06-22T04:07:37;63291.66;;;-139.42;100.00
9077;BME280;4574;51.072;17.174;2023-06-22T04:10:08;63291.66;;;-139.42;100.00
9077;BME280;4574;51.072;17.174;2023-06-22T04:12:39;63291.66;;;-139.42;100.00
9077;BME280;4574;51.072;17.174;2023-06-22T04:15:08;63291.66;;;-139.42;100.00
9077;BME280;4574;51.072;17.174;2023-06-22T04:17:37;63291.66;;;-139.42;100.00
9077;BME280;4574;51.072;17.174;2023-06-22T04:20:07;63291.66;;;-139.42;100.00
9077;BME280;4574;51.072;17.174;2023-06-22T04:22:35;63291.66;;;-139.42;100.00
9077;BME280;4574;51.072;17.174;2023-06-22T04:25:05;63291.66;;;-139.42;100.00
9077;BME280;4574;51.072;17.174;2023-06-22T04:27:36;63291.66;;;-139.42;100.00
9077;BME280;4574;51.072;17.174;2023-06-22T04:30:08;63291.66;;;-139.42;100.00
9077;BME280;4574;51.072;17.174;2023-06-22T04:32:37;63291.66;;;-139.42;100.00
9077;BME280;4574;51.072;17.174;2023-06-22T04:35:07;63291.66;;;-139.42;100.00
9077;BME280;4574;51.072;17.174;2023-06-22T04:37:36;63291.66;;;-139.42;100.00
9077;BME280;4574;51.072;17.174;2023-06-22T04:40:06;63291.66;;;-139.42;100.00
9077;BME280;4574;51.072;17.174;2023-06-22T04:42:38;63291.66;;;-139.42;100.00
9077;BME280;4574;51.072;17.174;2023-06-22T04:45:08;63291.66;;;-139.42;100.00
9077;BME280;4574;51.072;17.174;2023-06-22T04:47:37;63291.66;;;-139.42;100.00
9077;BME280;4574;51.072;17.174;2023-06-22T04:50:08;63291.66;;;-139.42;100.00
9077;BME280;4574;51.072;17.174;2023-06-22T04:52:37;63291.66;;;-139.42;100.00
9077;BME280;4574;51.072;17.174;2023-06-22T04:55:06;63291.66;;;-139.42;100.00
9077;BME280;4574;51.072;17.174;2023-06-22T04:57:37;63291.66;;;-139.42;100.00
9077;BME280;4574;51.072;17.174;2023-06-22T05:00:07;63291.66;;;-139.42;100.00
9077;BME280;4574;51.072;17.174;2023-06-22T05:02:46;63291.66;;;-139.42;100.00
9077;BME280;4574;51.072;17.174;2023-06-22T05:05:15;63291.66;;;-139.42;100.00
9077;BME280;4574;51.072;17.174;2023-06-22T05:07:45;63291.66;;;-139.42;100.00
9077;BME280;4574;51.072;17.174;2023-06-22T05:10:15;63291.66;;;-139.42;100.00
9077;BME280;4574;51.072;17.174;2023-06-22T05:12:49;63291.66;;;-139.42;100.00
9077;BME280;4574;51.072;17.174;2023-06-22T05:15:18;63291.66;;;-139.42;100.00
9077;BME280;4574;51.072;17.174;2023-06-22T05:17:47;63291.66;;;-139.42;100.00
9077;BME280;4574;51.072;17.174;2023-06-22T05:20:17;63291.66;;;-139.42;100.00
9077;BME280;4574;51.072;17.174;2023-06-22T05:22:46;63291.66;;;-139.42;100.00
9077;BME280;4574;51.072;17.174;2023-06-22T05:25:14;63291.66;;;-139.42;100.00
9077;BME280;4574;51.072;17.174;2023-06-22T05:27:43;63291.66;;;-139.42;100.00
9077;BME280;4574;51.072;17.174;2023-06-22T05:30:14;63291.66;;;-139.42;100.00
9077;BME280;4574;51.072;17.174;2023-06-22T05:32:46;63291.66;;;-139.42;100.00
9077;BME280;4574;51.072;17.174;2023-06-22T05:35:15;63291.66;;;-139.42;100.00
9077;BME280;4574;51.072;17.174;2023-06-22T05:37:47;63291.66;;;-139.42;100.00
9077;BME280;4574;51.072;17.174;2023-06-22T05:40:16;63291.66;;;-139.42;100.00
9077;BME280;4574;51.072;17.174;2023-06-22T05:42:46;63291.66;;;-139.42;100.00
9077;BME280;4574;51.072;17.174;2023-06-22T05:45:18;63291.66;;;-139.42;100.00
9077;BME280;4574;51.072;17.174;2023-06-22T05:47:47;63291.66;;;-139.42;100.00
9077;BME280;4574;51.072;17.174;2023-06-22T05:50:18;63291.66;;;-139.42;100.00
9077;BME280;4574;51.072;17.174;2023-06-22T05:52:47;63291.66;;;-139.42;100.00
9077;BME280;4574;51.072;17.174;2023-06-22T05:55:16;63291.66;;;-139.42;100.00
9077;BME280;4574;51.072;17.174;2023-06-22T05:57:45;63291.66;;;-139.42;100.00
9077;BME280;4574;51.072;17.174;2023-06-22T06:00:15;63291.66;;;-139.42;100.00
9077;BME280;4574;51.072;17.174;2023-06-22T06:02:45;63291.66;;;-139.42;100.00
9077;BME280;4574;51.072;17.174;2023-06-22T06:05:14;63291.66;;;-139.42;100.00
9077;BME280;4574;51.072;17.174;2023-06-22T06:07:44;63291.66;;;-139.42;100.00
9077;BME280;4574;51.072;17.174;2023-06-22T06:10:13;63291.66;;;-139.42;100.00
9077;BME280;4574;51.072;17.174;2023-06-22T06:12:42;63291.66;;;-139.42;100.00
9077;BME280;4574;51.072;17.174;2023-06-22T06:15:10;63291.66;;;-139.42;100.00
9077;BME280;4574;51.072;17.174;2023-06-22T06:17:46;63291.66;;;-139.42;100.00
9077;BME280;4574;51.072;17.174;2023-06-22T06:20:15;63291.66;;;-139.42;100.00
9077;BME280;4574;51.072;17.174;2023-06-22T06:22:44;63291.66;;;-139.42;100.00
9077;BME280;4574;51.072;17.174;2023-06-22T06:25:13;63291.66;;;-139.42;100.00
9077;BME280;4574;51.072;17.174;2023-06-22T06:27:46;63291.66;;;-139.42;100.00
9077;BME280;4574;51.072;17.174;2023-06-22T06:30:16;63291.66;;;-139.42;100.00
9077;BME280;4574;51.072;17.174;2023-06-22T06:32:47;63291.66;;;-139.42;100.00
9077;BME280;4574;51.072;17.174;2023-06-22T06:35:16;63291.66;;;-139.42;100.00
9077;BME280;4574;51.072;17.174;2023-06-22T06:37:47;63291.66;;;-139.42;100.00
9077;BME280;4574;51.072;17.174;2023-06-22T06:40:17;63291.66;;;-139.42;100.00
9077;BME280;4574;51.072;17.174;2023-06-22T06:42:47;63291.66;;;-139.42;100.00
9077;BME280;4574;51.072;17.174;2023-06-22T06:45:18;63291.66;;;-139.42;100.00
9077;BME280;4574;51.072;17.174;2023-06-22T06:47:49;63291.66;;;-139.42;100.00
9077;BME280;4574;51.072;17.174;2023-06-22T06:50:21;63291.66;;;-139.42;100.00
9077;BME280;4574;51.072;17.174;2023-06-22T06:52:49;63291.66;;;-139.42;100.00
9077;BME280;4574;51.072;17.174;2023-06-22T06:55:18;63291.66;;;-139.42;100.00
9077;BME280;4574;51.072;17.174;2023-06-22T06:57:50;63291.66;;;-139.42;100.00
9077;BME280;4574;51.072;17.174;2023-06-22T07:00:20;63291.66;;;-139.42;100.00
9077;BME280;4574;51.072;17.174;2023-06-22T07:02:51;63291.66;;;-139.42;100.00
9077;BME280;4574;51.072;17.174;2023-06-22T07:05:20;63291.66;;;-139.42;100.00
9077;BME280;4574;51.072;17.174;2023-06-22T07:07:49;63291.66;;;-139.42;100.00
9077;BME280;4574;51.072;17.174;2023-06-22T07:10:17;63291.66;;;-139.42;100.00
9077;BME280;4574;51.072;17.174;2023-06-22T07:12:46;63291.66;;;-139.42;100.00
9077;BME280;4574;51.072;17.174;2023-06-22T07:15:15;63291.66;;;-139.42;100.00
9077;BME280;4574;51.072;17.174;2023-06-22T07:17:44;63291.66;;;-139.42;100.00
9077;BME280;4574;51.072;17.174;2023-06-22T07:20:15;63291.66;;;-139.42;100.00
9077;BME280;4574;51.072;17.174;2023-06-22T07:22:44;63291.66;;;-139.42;100.00
9077;BME280;4574;51.072;17.174;2023-06-22T07:25:14;63291.66;;;-139.42;100.00
9077;BME280;4574;51.072;17.174;2023-06-22T07:27:45;63291.66;;;-139.42;100.00
9077;BME280;4574;51.072;17.174;2023-06-22T07:30:15;63291.66;;;-139.42;100.00
9077;BME280;4574;51.072;17.174;2023-06-22T07:32:45;63291.66;;;-139.42;100.00
9077;BME280;4574;51.072;17.174;2023-06-22T07:35:15;63291.66;;;-139.42;100.00
9077;BME280;4574;51.072;17.174;2023-06-22T07:37:44;63291.66;;;-139.42;100.00
9077;BME280;4574;51.072;17.174;2023-06-22T07:40:13;63291.66;;;-139.42;100.00
9077;BME280;4574;51.072;17.174;2023-06-22T07:42:41;63291.66;;;-139.42;100.00
9077;BME280;4574;51.072;17.174;2023-06-22T07:45:10;63291.66;;;-139.42;100.00
9077;BME280;4574;51.072;17.174;2023-06-22T07:47:38;63291.66;;;-139.42;100.00
9077;BME280;4574;51.072;17.174;2023-06-22T07:50:08;63291.66;;;-139.42;100.00
9077;BME280;4574;51.072;17.174;2023-06-22T07:52:38;63291.66;;;-139.42;100.00
9077;BME280;4574;51.072;17.174;2023-06-22T07:55:07;63291.66;;;-139.42;100.00
9077;BME280;4574;51.072;17.174;2023-06-22T07:57:36;63291.66;;;-139.42;100.00
9077;BME280;4574;51.072;17.174;2023-06-22T08:00:06;63291.66;;;-139.42;100.00
9077;BME280;4574;51.072;17.174;2023-06-22T08:02:40;63291.66;;;-139.42;100.00
9077;BME280;4574;51.072;17.174;2023-06-22T08:05:09;63291.66;;;-139.42;100.00
9077;BME280;4574;51.072;17.174;2023-06-22T08:07:49;63291.66;;;-139.42;100.00
9077;BME280;4574;51.072;17.174;2023-06-22T08:10:18;63291.66;;;-139.42;100.00
9077;BME280;4574;51.072;17.174;2023-06-22T08:12:47;63291.66;;;-139.42;100.00
9077;BME280;4574;51.072;17.174;2023-06-22T08:15:16;63291.66;;;-139.42;100.00
9077;BME280;4574;51.072;17.174;2023-06-22T08:17:45;63291.66;;;-139.42;100.00
9077;BME280;4574;51.072;17.174;2023-06-22T08:20:14;63291.66;;;-139.42;100.00
9077;BME280;4574;51.072;17.174;2023-06-22T08:22:43;63291.66;;;-139.42;100.00
9077;BME280;4574;51.072;17.174;2023-06-22T08:25:14;63291.66;;;-139.42;100.00
9077;BME280;4574;51.072;17.174;2023-06-22T08:27:45;63291.66;;;-139.42;100.00
9077;BME280;4574;51.072;17.174;2023-06-22T08:30:15;63291.66;;;-139.42;100.00
9077;BME280;4574;51.072;17.174;2023-06-22T08:32:44;63291.66;;;-139.42;100.00
9077;BME280;4574;51.072;17.174;2023-06-22T08:35:13;63291.66;;;-139.42;100.00
9077;BME280;4574;51.072;17.174;2023-06-22T08:37:41;63291.66;;;-139.42;100.00
9077;BME280;4574;51.072;17.174;2023-06-22T08:40:11;63291.66;;;-139.42;100.00
9077;BME280;4574;51.072;17.174;2023-06-22T08:42:41;63291.66;;;-139.42;100.00
9077;BME280;4574;51.072;17.174;2023-06-22T08:45:10;63291.66;;;-139.42;100.00
9077;BME280;4574;51.072;17.174;2023-06-22T08:47:39;63291.66;;;-139.42;100.00
9077;BME280;4574;51.072;17.174;2023-06-22T08:50:09;63291.66;;;-139.42;100.00
9077;BME280;4574;51.072;17.174;2023-06-22T08:52:38;63291.66;;;-139.42;100.00
9077;BME280;4574;51.072;17.174;2023-06-22T08:55:09;63291.66;;;-139.42;100.00
9077;BME280;4574;51.072;17.174;2023-06-22T08:57:38;63291.66;;;-139.42;100.00
9077;BME280;4574;51.072;17.174;2023-06-22T09:00:10;63291.66;;;-139.42;100.00
9077;BME280;4574;51.072;17.174;2023-06-22T09:02:44;63291.66;;;-139.42;100.00
9077;BME280;4574;51.072;17.174;2023-06-22T09:05:14;63291.66;;;-139.42;100.00
9077;BME280;4574;51.072;17.174;2023-06-22T09:07:43;63291.66;;;-139.42;100.00
9077;BME280;4574;51.072;17.174;2023-06-22T09:10:12;63291.66;;;-139.42;100.00
9077;BME280;4574;51.072;17.174;2023-06-22T09:12:40;63291.66;;;-139.42;100.00
9077;BME280;4574;51.072;17.174;2023-06-22T09:15:10;63291.66;;;-139.42;100.00
9077;BME280;4574;51.072;17.174;2023-06-22T09:17:54;63291.66;;;-139.42;100.00
9077;BME280;4574;51.072;17.174;2023-06-22T09:20:22;63291.66;;;-139.42;100.00
9077;BME280;4574;51.072;17.174;2023-06-22T09:22:53;63291.66;;;-139.42;100.00
9077;BME280;4574;51.072;17.174;2023-06-22T09:25:21;63291.66;;;-139.42;100.00
9077;BME280;4574;51.072;17.174;2023-06-22T09:27:50;63291.66;;;-139.42;100.00
9077;BME280;4574;51.072;17.174;2023-06-22T09:30:20;63291.66;;;-139.42;100.00
9077;BME280;4574;51.072;17.174;2023-06-22T09:32:49;63291.66;;;-139.42;100.00
9077;BME280;4574;51.072;17.174;2023-06-22T09:35:17;63291.66;;;-139.42;100.00
9077;BME280;4574;51.072;17.174;2023-06-22T09:37:47;63291.66;;;-139.42;100.00
9077;BME280;4574;51.072;17.174;2023-06-22T09:40:15;63291.66;;;-139.42;100.00
9077;BME280;4574;51.072;17.174;2023-06-22T09:42:44;63291.66;;;-139.42;100.00
9077;BME280;4574;51.072;17.174;2023-06-22T09:45:12;63291.66;;;-139.42;100.00
9077;BME280;4574;51.072;17.174;2023-06-22T09:47:42;63291.66;;;-139.42;100.00
9077;BME280;4574;51.072;17.174;2023-06-22T09:50:11;63291.66;;;-139.42;100.00
9077;BME280;4574;51.072;17.174;2023-06-22T09:52:40;63291.66;;;-139.42;100.00
9077;BME280;4574;51.072;17.174;2023-06-22T09:55:14;63291.66;;;-139.42;100.00
9077;BME280;4574;51.072;17.174;2023-06-22T09:57:44;63291.66;;;-139.42;100.00
9077;BME280;4574;51.072;17.174;2023-06-22T10:00:15;63291.66;;;-139.42;100.00
9077;BME280;4574;51.072;17.174;2023-06-22T10:02:46;63291.66;;;-139.42;100.00
9077;BME280;4574;51.072;17.174;2023-06-22T10:05:15;63291.66;;;-139.42;100.00
9077;BME280;4574;51.072;17.174;2023-06-22T10:07:44;63291.66;;;-139.42;100.00
9077;BME280;4574;51.072;17.174;2023-06-22T10:10:13;63291.66;;;-139.42;100.00
9077;BME280;4574;51.072;17.174;2023-06-22T10:12:45;63291.66;;;-139.42;100.00
9077;BME280;4574;51.072;17.174;2023-06-22T10:15:14;63291.66;;;-139.42;100.00
9077;BME280;4574;51.072;17.174;2023-06-22T10:17:43;63291.66;;;-139.42;100.00
9077;BME280;4574;51.072;17.174;2023-06-22T10:20:16;63291.66;;;-139.42;100.00
9077;BME280;4574;51.072;17.174;2023-06-22T10:22:45;63291.66;;;-139.42;100.00
9077;BME280;4574;51.072;17.174;2023-06-22T10:25:14;63291.66;;;-139.42;100.00
9077;BME280;4574;51.072;17.174;2023-06-22T10:27:42;63291.66;;;-139.42;100.00
9077;BME280;4574;51.072;17.174;2023-06-22T10:30:12;63291.66;;;-139.42;100.00
9077;BME280;4574;51.072;17.174;2023-06-22T10:32:41;63291.66;;;-139.42;100.00
9077;BME280;4574;51.072;17.174;2023-06-22T10:35:11;63291.66;;;-139.42;100.00
9077;BME280;4574;51.072;17.174;2023-06-22T10:37:43;63291.66;;;-139.42;100.00
9077;BME280;4574;51.072;17.174;2023-06-22T10:40:12;63291.66;;;-139.42;100.00
9077;BME280;4574;51.072;17.174;2023-06-22T10:42:44;63291.66;;;-139.42;100.00
9077;BME280;4574;51.072;17.174;2023-06-22T10:45:13;63291.66;;;-139.42;100.00
9077;BME280;4574;51.072;17.174;2023-06-22T10:47:42;63291.66;;;-139.42;100.00
9077;BME280;4574;51.072;17.174;2023-06-22T10:50:11;63291.66;;;-139.42;100.00
9077;BME280;4574;51.072;17.174;2023-06-22T10:52:40;63291.66;;;-139.42;100.00
9077;BME280;4574;51.072;17.174;2023-06-22T10:55:10;63291.66;;;-139.42;100.00
9077;BME280;4574;51.072;17.174;2023-06-22T10:57:39;63291.66;;;-139.42;100.00
9077;BME280;4574;51.072;17.174;2023-06-22T11:00:12;63291.66;;;-139.42;100.00
9077;BME280;4574;51.072;17.174;2023-06-22T11:02:41;63291.66;;;-139.42;100.00
9077;BME280;4574;51.072;17.174;2023-06-22T11:05:09;100464.31;;;31.98;61.69
9077;BME280;4574;51.072;17.174;2023-06-22T11:07:41;100465.66;;;32.06;59.72
9077;BME280;4574;51.072;17.174;2023-06-22T11:10:12;100459.84;;;32.22;60.40
9077;BME280;4574;51.072;17.174;2023-06-22T11:12:40;100456.53;;;32.30;59.51
9077;BME280;4574;51.072;17.174;2023-06-22T11:15:10;100452.91;;;31.76;58.24
9077;BME280;4574;51.072;17.174;2023-06-22T11:17:38;100456.50;;;31.67;59.34
9077;BME280;4574;51.072;17.174;2023-06-22T11:20:07;100461.44;;;31.65;60.84
9077;BME280;4574;51.072;17.174;2023-06-22T11:22:52;100467.59;;;32.00;58.93
9077;BME280;4574;51.072;17.174;2023-06-22T11:25:22;100462.88;;;32.21;59.30
9077;BME280;4574;51.072;17.174;2023-06-22T11:27:51;100462.56;;;32.27;58.38
9077;BME280;4574;51.072;17.174;2023-06-22T11:30:20;100464.22;;;32.33;58.17
9077;BME280;4574;51.072;17.174;2023-06-22T11:32:49;100454.88;;;32.29;57.11
9077;BME280;4574;51.072;17.174;2023-06-22T11:35:18;100453.78;;;32.35;56.06
9077;BME280;4574;51.072;17.174;2023-06-22T11:37:46;100443.75;;;32.59;56.26
9077;BME280;4574;51.072;17.174;2023-06-22T11:40:15;100443.88;;;32.83;55.25
9077;BME280;4574;51.072;17.174;2023-06-22T11:42:46;100450.47;;;32.82;53.72
9077;BME280;4574;51.072;17.174;2023-06-22T11:45:14;100448.28;;;32.79;54.70
9077;BME280;4574;51.072;17.174;2023-06-22T11:47:44;100435.59;;;32.49;52.77
9077;BME280;4574;51.072;17.174;2023-06-22T11:50:15;100437.44;;;32.97;53.23
9077;BME280;4574;51.072;17.174;2023-06-22T11:52:43;100439.94;;;33.27;51.65
9077;BME280;4574;51.072;17.174;2023-06-22T11:55:12;100438.56;;;33.53;53.56
9077;BME280;4574;51.072;17.174;2023-06-22T11:57:56;100431.25;;;33.72;51.20
9077;BME280;4574;51.072;17.174;2023-06-22T12:00:26;100439.09;;;33.83;52.04
9077;BME280;4574;51.072;17.174;2023-06-22T12:02:56;100436.31;;;34.07;51.11
9077;BME280;4574;51.072;17.174;2023-06-22T12:05:27;100429.72;;;34.08;52.05
9077;BME280;4574;51.072;17.174;2023-06-22T12:07:55;100424.94;;;34.13;52.88
9077;BME280;4574;51.072;17.174;2023-06-22T12:10:25;100421.59;;;34.40;51.44
9077;BME280;4574;51.072;17.174;2023-06-22T12:12:57;100420.53;;;34.54;52.01
9077;BME280;4574;51.072;17.174;2023-06-22T12:15:27;100413.19;;;34.50;49.87
9077;BME280;4574;51.072;17.174;2023-06-22T12:17:55;100407.16;;;34.48;50.03
9077;BME280;4574;51.072;17.174;2023-06-22T12:20:24;100396.91;;;34.35;50.46
9077;BME280;4574;51.072;17.174;2023-06-22T12:22:52;100402.53;;;34.62;49.91
9077;BME280;4574;51.072;17.174;2023-06-22T12:25:23;100400.00;;;34.83;49.32
9077;BME280;4574;51.072;17.174;2023-06-22T12:27:51;100400.44;;;34.90;48.77
9077;BME280;4574;51.072;17.174;2023-06-22T12:30:22;100396.47;;;34.65;50.69
9077;BME280;4574;51.072;17.174;2023-06-22T12:32:50;100396.47;;;34.65;49.79
9077;BME280;4574;51.072;17.174;2023-06-22T12:35:22;100394.63;;;34.92;49.17
9077;BME280;4574;51.072;17.174;2023-06-22T12:37:50;100394.56;;;34.78;49.10
9077;BME280;4574;51.072;17.174;2023-06-22T12:40:19;100390.72;;;35.11;48.94
9077;BME280;4574;51.072;17.174;2023-06-22T12:42:48;100388.00;;;34.93;47.21
9077;BME280;4574;51.072;17.174;2023-06-22T12:45:17;100374.97;;;34.67;49.78
9077;BME280;4574;51.072;17.174;2023-06-22T12:47:47;100382.63;;;34.69;49.06
9077;BME280;4574;51.072;17.174;2023-06-22T12:50:17;100380.75;;;34.65;48.12
9077;BME280;4574;51.072;17.174;2023-06-22T12:52:45;100380.03;;;34.91;49.64
9077;BME280;4574;51.072;17.174;2023-06-22T12:55:14;100372.47;;;35.15;49.09
9077;BME280;4574;51.072;17.174;2023-06-22T12:57:42;100373.09;;;35.39;48.44